sensor_id;sensor_type;location;lat;lon;timestamp;temperature;humidity
52107;DHT22;38105;52.968;5.974;2023-08-20T00:02:10;16.10;99.90
52107;DHT22;38105;52.968;5.974;2023-08-20T00:04:37;16.00;99.90
52107;DHT22;38105;52.968;5.974;2023-08-20T00:07:03;16.20;99.90
52107;DHT22;38105;52.968;5.974;2023-08-20T00:09:29;16.10;99.90
52107;DHT22;38105;52.968;5.974;2023-08-20T00:11:56;16.00;99.90
52107;DHT22;38105;52.968;5.974;2023-08-20T00:15:00;16.10;99.90
52107;DHT22;38105;52.968;5.974;2023-08-20T00:17:37;16.10;99.90
52107;DHT22;38105;52.968;5.974;2023-08-20T00:20:05;16.00;99.90
52107;DHT22;38105;52.968;5.974;2023-08-20T00:22:36;16.00;99.90
52107;DHT22;38105;52.968;5.974;2023-08-20T00:25:02;16.00;99.90
52107;DHT22;38105;52.968;5.974;2023-08-20T00:27:32;16.00;99.90
52107;DHT22;38105;52.968;5.974;2023-08-20T00:29:58;16.00;99.90
52107;DHT22;38105;52.968;5.974;2023-08-20T00:32:24;16.10;99.90
52107;DHT22;38105;52.968;5.974;2023-08-20T00:34:49;16.10;99.90
52107;DHT22;38105;52.968;5.974;2023-08-20T00:37:15;15.90;99.90
52107;DHT22;38105;52.968;5.974;2023-08-20T00:39:41;16.00;99.90
52107;DHT22;38105;52.968;5.974;2023-08-20T00:42:07;15.90;99.90
52107;DHT22;38105;52.968;5.974;2023-08-20T00:44:34;15.90;99.90
52107;DHT22;38105;52.968;5.974;2023-08-20T00:47:01;15.90;99.90
52107;DHT22;38105;52.968;5.974;2023-08-20T00:49:31;15.90;99.90
52107;DHT22;38105;52.968;5.974;2023-08-20T00:51:58;16.00;99.90
52107;DHT22;38105;52.968;5.974;2023-08-20T00:54:24;15.80;99.90
52107;DHT22;38105;52.968;5.974;2023-08-20T00:56:51;15.90;99.90
52107;DHT22;38105;52.968;5.974;2023-08-20T00:59:17;15.90;99.90
52107;DHT22;38105;52.968;5.974;2023-08-20T01:01:43;15.90;99.90
52107;DHT22;38105;52.968;5.974;2023-08-20T01:04:08;15.90;99.90
52107;DHT22;38105;52.968;5.974;2023-08-20T01:06:55;15.90;99.90
52107;DHT22;38105;52.968;5.974;2023-08-20T01:12:28;15.90;99.90
52107;DHT22;38105;52.968;5.974;2023-08-20T01:14:54;15.70;99.90
52107;DHT22;38105;52.968;5.974;2023-08-20T01:17:20;15.80;99.90
52107;DHT22;38105;52.968;5.974;2023-08-20T01:19:45;15.90;99.90
52107;DHT22;38105;52.968;5.974;2023-08-20T01:22:36;15.80;99.90
52107;DHT22;38105;52.968;5.974;2023-08-20T01:30:36;15.60;99.90
52107;DHT22;38105;52.968;5.974;2023-08-20T01:33:03;15.80;99.90
52107;DHT22;38105;52.968;5.974;2023-08-20T01:35:29;15.80;99.90
52107;DHT22;38105;52.968;5.974;2023-08-20T01:37:54;15.60;99.90
52107;DHT22;38105;52.968;5.974;2023-08-20T01:40:20;15.80;99.90
52107;DHT22;38105;52.968;5.974;2023-08-20T01:42:46;15.70;99.90
52107;DHT22;38105;52.968;5.974;2023-08-20T01:45:11;15.60;99.90
52107;DHT22;38105;52.968;5.974;2023-08-20T01:47:37;15.70;99.90
52107;DHT22;38105;52.968;5.974;2023-08-20T01:50:03;15.80;99.90
52107;DHT22;38105;52.968;5.974;2023-08-20T01:52:29;15.70;99.90
52107;DHT22;38105;52.968;5.974;2023-08-20T01:54:55;15.60;99.90
52107;DHT22;38105;52.968;5.974;2023-08-20T01:57:21;15.50;99.90
52107;DHT22;38105;52.968;5.974;2023-08-20T01:59:47;15.80;99.90
52107;DHT22;38105;52.968;5.974;2023-08-20T02:02:13;15.40;99.90
52107;DHT22;38105;52.968;5.974;2023-08-20T02:04:38;15.60;99.90
52107;DHT22;38105;52.968;5.974;2023-08-20T02:07:04;15.40;99.90
52107;DHT22;38105;52.968;5.974;2023-08-20T02:09:30;15.40;99.90
52107;DHT22;38105;52.968;5.974;2023-08-20T02:11:55;15.50;99.90
52107;DHT22;38105;52.968;5.974;2023-08-20T02:14:21;15.60;99.90
52107;DHT22;38105;52.968;5.974;2023-08-20T02:16:47;15.60;99.90
52107;DHT22;38105;52.968;5.974;2023-08-20T02:19:13;15.70;99.90
52107;DHT22;38105;52.968;5.974;2023-08-20T02:21:40;15.40;99.90
52107;DHT22;38105;52.968;5.974;2023-08-20T02:24:06;15.40;99.90
52107;DHT22;38105;52.968;5.974;2023-08-20T02:26:32;15.50;99.90
52107;DHT22;38105;52.968;5.974;2023-08-20T02:28:57;15.60;99.90
52107;DHT22;38105;52.968;5.974;2023-08-20T02:31:23;15.40;99.90
52107;DHT22;38105;52.968;5.974;2023-08-20T02:33:49;15.50;99.90
52107;DHT22;38105;52.968;5.974;2023-08-20T02:36:14;15.50;99.90
52107;DHT22;38105;52.968;5.974;2023-08-20T02:38:40;15.60;99.90
52107;DHT22;38105;52.968;5.974;2023-08-20T02:41:06;15.40;99.90
52107;DHT22;38105;52.968;5.974;2023-08-20T02:43:32;15.70;99.90
52107;DHT22;38105;52.968;5.974;2023-08-20T02:45:58;15.80;99.90
52107;DHT22;38105;52.968;5.974;2023-08-20T02:48:23;15.70;99.90
52107;DHT22;38105;52.968;5.974;2023-08-20T02:50:53;15.50;99.90
52107;DHT22;38105;52.968;5.974;2023-08-20T02:53:20;15.70;99.90
52107;DHT22;38105;52.968;5.974;2023-08-20T02:55:45;15.70;99.90
52107;DHT22;38105;52.968;5.974;2023-08-20T02:58:11;15.70;99.90
52107;DHT22;38105;52.968;5.974;2023-08-20T03:00:37;15.60;99.90
52107;DHT22;38105;52.968;5.974;2023-08-20T03:03:03;15.50;99.90
52107;DHT22;38105;52.968;5.974;2023-08-20T03:05:34;15.60;99.90
52107;DHT22;38105;52.968;5.974;2023-08-20T03:08:00;15.40;99.90
52107;DHT22;38105;52.968;5.974;2023-08-20T03:10:27;15.70;99.90
52107;DHT22;38105;52.968;5.974;2023-08-20T03:12:53;15.40;99.90
52107;DHT22;38105;52.968;5.974;2023-08-20T03:15:18;15.40;99.90
52107;DHT22;38105;52.968;5.974;2023-08-20T03:17:44;15.40;99.90
52107;DHT22;38105;52.968;5.974;2023-08-20T03:20:10;15.30;99.90
52107;DHT22;38105;52.968;5.974;2023-08-20T03:22:37;15.30;99.90
52107;DHT22;38105;52.968;5.974;2023-08-20T03:25:03;15.50;99.90
52107;DHT22;38105;52.968;5.974;2023-08-20T03:27:29;15.50;99.90
52107;DHT22;38105;52.968;5.974;2023-08-20T03:29:55;15.30;99.90
52107;DHT22;38105;52.968;5.974;2023-08-20T03:32:21;15.30;99.90
52107;DHT22;38105;52.968;5.974;2023-08-20T03:34:47;15.50;99.90
52107;DHT22;38105;52.968;5.974;2023-08-20T03:37:12;15.30;99.90
52107;DHT22;38105;52.968;5.974;2023-08-20T03:39:38;15.30;99.90
52107;DHT22;38105;52.968;5.974;2023-08-20T03:42:04;15.40;99.90
52107;DHT22;38105;52.968;5.974;2023-08-20T03:44:31;15.50;99.90
52107;DHT22;38105;52.968;5.974;2023-08-20T03:46:57;15.30;99.90
52107;DHT22;38105;52.968;5.974;2023-08-20T03:49:22;15.30;99.90
52107;DHT22;38105;52.968;5.974;2023-08-20T03:51:48;15.50;99.90
52107;DHT22;38105;52.968;5.974;2023-08-20T03:54:14;15.30;99.90
52107;DHT22;38105;52.968;5.974;2023-08-20T03:56:39;15.40;99.90
52107;DHT22;38105;52.968;5.974;2023-08-20T03:59:05;15.30;99.90
52107;DHT22;38105;52.968;5.974;2023-08-20T04:01:31;15.50;99.90
52107;DHT22;38105;52.968;5.974;2023-08-20T04:03:57;15.20;99.90
52107;DHT22;38105;52.968;5.974;2023-08-20T04:06:23;15.20;99.90
52107;DHT22;38105;52.968;5.974;2023-08-20T04:08:48;15.20;99.90
52107;DHT22;38105;52.968;5.974;2023-08-20T04:11:14;15.30;99.90
52107;DHT22;38105;52.968;5.974;2023-08-20T04:13:40;15.30;99.90
52107;DHT22;38105;52.968;5.974;2023-08-20T04:16:08;15.20;99.90
52107;DHT22;38105;52.968;5.974;2023-08-20T04:18:34;15.50;99.90
52107;DHT22;38105;52.968;5.974;2023-08-20T04:21:00;15.50;99.90
52107;DHT22;38105;52.968;5.974;2023-08-20T04:23:25;15.40;99.90
52107;DHT22;38105;52.968;5.974;2023-08-20T04:25:52;15.40;99.90
52107;DHT22;38105;52.968;5.974;2023-08-20T04:28:18;15.10;99.90
52107;DHT22;38105;52.968;5.974;2023-08-20T04:30:44;15.20;99.90
52107;DHT22;38105;52.968;5.974;2023-08-20T04:33:10;15.20;99.90
52107;DHT22;38105;52.968;5.974;2023-08-20T04:35:36;15.40;99.90
52107;DHT22;38105;52.968;5.974;2023-08-20T04:38:02;15.40;99.90
52107;DHT22;38105;52.968;5.974;2023-08-20T04:40:28;15.20;99.90
52107;DHT22;38105;52.968;5.974;2023-08-20T04:42:53;15.20;99.90
52107;DHT22;38105;52.968;5.974;2023-08-20T04:45:22;15.40;99.90
52107;DHT22;38105;52.968;5.974;2023-08-20T04:47:48;15.20;99.90
52107;DHT22;38105;52.968;5.974;2023-08-20T04:50:14;15.30;99.90
52107;DHT22;38105;52.968;5.974;2023-08-20T04:52:40;15.40;99.90
52107;DHT22;38105;52.968;5.974;2023-08-20T04:55:08;15.30;99.90
52107;DHT22;38105;52.968;5.974;2023-08-20T04:57:35;15.50;99.90
52107;DHT22;38105;52.968;5.974;2023-08-20T05:00:00;15.50;99.90
52107;DHT22;38105;52.968;5.974;2023-08-20T05:02:26;15.60;99.90
52107;DHT22;38105;52.968;5.974;2023-08-20T05:04:52;15.30;99.90
52107;DHT22;38105;52.968;5.974;2023-08-20T05:07:18;15.60;99.90
52107;DHT22;38105;52.968;5.974;2023-08-20T05:09:44;16.00;99.90
52107;DHT22;38105;52.968;5.974;2023-08-20T05:12:09;16.10;99.90
52107;DHT22;38105;52.968;5.974;2023-08-20T05:14:35;16.80;99.90
52107;DHT22;38105;52.968;5.974;2023-08-20T05:17:01;17.30;99.90
52107;DHT22;38105;52.968;5.974;2023-08-20T05:19:27;18.10;99.90
52107;DHT22;38105;52.968;5.974;2023-08-20T05:21:52;18.80;99.90
52107;DHT22;38105;52.968;5.974;2023-08-20T05:24:22;19.50;99.90
52107;DHT22;38105;52.968;5.974;2023-08-20T05:27:15;20.30;99.90
52107;DHT22;38105;52.968;5.974;2023-08-20T05:29:43;21.20;99.90
52107;DHT22;38105;52.968;5.974;2023-08-20T05:32:09;22.10;99.90
52107;DHT22;38105;52.968;5.974;2023-08-20T05:34:35;23.00;99.90
52107;DHT22;38105;52.968;5.974;2023-08-20T05:37:01;23.70;99.90
52107;DHT22;38105;52.968;5.974;2023-08-20T05:39:29;24.20;99.90
52107;DHT22;38105;52.968;5.974;2023-08-20T05:41:55;24.80;99.90
52107;DHT22;38105;52.968;5.974;2023-08-20T05:44:21;25.20;99.90
52107;DHT22;38105;52.968;5.974;2023-08-20T05:46:47;25.80;99.90
52107;DHT22;38105;52.968;5.974;2023-08-20T05:49:14;26.30;99.90
52107;DHT22;38105;52.968;5.974;2023-08-20T05:51:44;26.90;99.90
52107;DHT22;38105;52.968;5.974;2023-08-20T05:54:10;27.10;99.90
52107;DHT22;38105;52.968;5.974;2023-08-20T05:56:37;28.30;99.90
52107;DHT22;38105;52.968;5.974;2023-08-20T05:59:03;28.30;99.90
52107;DHT22;38105;52.968;5.974;2023-08-20T06:01:28;28.50;99.90
52107;DHT22;38105;52.968;5.974;2023-08-20T06:03:56;28.70;99.90
52107;DHT22;38105;52.968;5.974;2023-08-20T06:06:22;29.10;99.90
52107;DHT22;38105;52.968;5.974;2023-08-20T06:08:48;29.60;99.90
52107;DHT22;38105;52.968;5.974;2023-08-20T06:11:14;30.10;99.90
52107;DHT22;38105;52.968;5.974;2023-08-20T06:13:39;30.50;99.90
52107;DHT22;38105;52.968;5.974;2023-08-20T06:16:07;30.50;99.90
52107;DHT22;38105;52.968;5.974;2023-08-20T06:18:32;30.60;99.90
52107;DHT22;38105;52.968;5.974;2023-08-20T06:20:58;31.10;99.90
52107;DHT22;38105;52.968;5.974;2023-08-20T06:23:24;31.60;99.90
52107;DHT22;38105;52.968;5.974;2023-08-20T06:25:52;31.50;99.90
52107;DHT22;38105;52.968;5.974;2023-08-20T06:28:18;32.20;99.90
52107;DHT22;38105;52.968;5.974;2023-08-20T06:30:44;31.90;99.90
52107;DHT22;38105;52.968;5.974;2023-08-20T06:33:10;32.50;99.90
52107;DHT22;38105;52.968;5.974;2023-08-20T06:35:35;32.60;99.90
52107;DHT22;38105;52.968;5.974;2023-08-20T06:38:01;33.40;99.90
52107;DHT22;38105;52.968;5.974;2023-08-20T06:40:26;33.70;99.90
52107;DHT22;38105;52.968;5.974;2023-08-20T06:42:52;34.20;99.90
52107;DHT22;38105;52.968;5.974;2023-08-20T06:45:17;34.60;99.90
52107;DHT22;38105;52.968;5.974;2023-08-20T06:47:43;35.30;99.90
52107;DHT22;38105;52.968;5.974;2023-08-20T06:50:09;35.10;99.90
52107;DHT22;38105;52.968;5.974;2023-08-20T06:52:34;35.40;99.90
52107;DHT22;38105;52.968;5.974;2023-08-20T06:55:00;35.30;99.90
52107;DHT22;38105;52.968;5.974;2023-08-20T06:57:25;34.90;99.90
52107;DHT22;38105;52.968;5.974;2023-08-20T06:59:51;34.80;99.90
52107;DHT22;38105;52.968;5.974;2023-08-20T07:02:16;35.40;99.90
52107;DHT22;38105;52.968;5.974;2023-08-20T07:04:42;35.60;99.90
52107;DHT22;38105;52.968;5.974;2023-08-20T07:07:07;35.70;99.90
52107;DHT22;38105;52.968;5.974;2023-08-20T07:09:34;36.10;99.90
52107;DHT22;38105;52.968;5.974;2023-08-20T07:12:00;35.90;99.90
52107;DHT22;38105;52.968;5.974;2023-08-20T07:14:26;36.30;99.90
52107;DHT22;38105;52.968;5.974;2023-08-20T07:16:51;36.60;99.90
52107;DHT22;38105;52.968;5.974;2023-08-20T07:19:17;36.40;99.80
52107;DHT22;38105;52.968;5.974;2023-08-20T07:21:42;36.70;99.70
52107;DHT22;38105;52.968;5.974;2023-08-20T07:24:08;36.60;99.30
52107;DHT22;38105;52.968;5.974;2023-08-20T07:26:33;36.70;99.10
52107;DHT22;38105;52.968;5.974;2023-08-20T07:28:59;36.60;98.60
52107;DHT22;38105;52.968;5.974;2023-08-20T07:31:25;35.70;99.20
52107;DHT22;38105;52.968;5.974;2023-08-20T07:33:51;36.30;99.40
52107;DHT22;38105;52.968;5.974;2023-08-20T07:36:17;36.50;99.30
52107;DHT22;38105;52.968;5.974;2023-08-20T07:38:43;36.80;98.40
52107;DHT22;38105;52.968;5.974;2023-08-20T07:41:09;36.80;98.40
52107;DHT22;38105;52.968;5.974;2023-08-20T07:43:37;37.00;98.70
52107;DHT22;38105;52.968;5.974;2023-08-20T07:46:03;37.50;98.20
52107;DHT22;38105;52.968;5.974;2023-08-20T07:48:29;37.50;97.90
52107;DHT22;38105;52.968;5.974;2023-08-20T07:50:54;38.10;97.80
52107;DHT22;38105;52.968;5.974;2023-08-20T07:53:20;38.20;97.90
52107;DHT22;38105;52.968;5.974;2023-08-20T07:55:45;38.30;97.30
52107;DHT22;38105;52.968;5.974;2023-08-20T07:58:11;38.70;97.20
52107;DHT22;38105;52.968;5.974;2023-08-20T08:00:37;38.30;96.70
52107;DHT22;38105;52.968;5.974;2023-08-20T08:03:02;38.00;97.10
52107;DHT22;38105;52.968;5.974;2023-08-20T08:05:28;38.30;96.60
52107;DHT22;38105;52.968;5.974;2023-08-20T08:07:54;38.00;96.50
52107;DHT22;38105;52.968;5.974;2023-08-20T08:10:19;38.20;96.40
52107;DHT22;38105;52.968;5.974;2023-08-20T08:12:45;37.60;96.10
52107;DHT22;38105;52.968;5.974;2023-08-20T08:15:11;37.70;95.60
52107;DHT22;38105;52.968;5.974;2023-08-20T08:17:37;38.20;96.20
52107;DHT22;38105;52.968;5.974;2023-08-20T08:20:03;37.70;95.90
52107;DHT22;38105;52.968;5.974;2023-08-20T08:22:28;37.80;95.80
52107;DHT22;38105;52.968;5.974;2023-08-20T08:24:54;38.20;96.10
52107;DHT22;38105;52.968;5.974;2023-08-20T08:27:19;37.50;94.90
52107;DHT22;38105;52.968;5.974;2023-08-20T08:29:45;37.70;95.80
52107;DHT22;38105;52.968;5.974;2023-08-20T08:32:11;37.50;96.60
52107;DHT22;38105;52.968;5.974;2023-08-20T08:34:36;38.00;96.00
52107;DHT22;38105;52.968;5.974;2023-08-20T08:37:02;38.40;96.10
52107;DHT22;38105;52.968;5.974;2023-08-20T08:39:27;38.50;95.80
52107;DHT22;38105;52.968;5.974;2023-08-20T08:41:54;38.30;95.50
52107;DHT22;38105;52.968;5.974;2023-08-20T08:44:21;38.30;95.60
52107;DHT22;38105;52.968;5.974;2023-08-20T08:46:47;38.00;95.50
52107;DHT22;38105;52.968;5.974;2023-08-20T08:49:15;38.20;96.00
52107;DHT22;38105;52.968;5.974;2023-08-20T08:51:40;38.50;95.40
52107;DHT22;38105;52.968;5.974;2023-08-20T08:54:07;38.30;95.40
52107;DHT22;38105;52.968;5.974;2023-08-20T08:56:34;37.10;95.00
52107;DHT22;38105;52.968;5.974;2023-08-20T08:58:59;36.30;95.10
52107;DHT22;38105;52.968;5.974;2023-08-20T09:01:25;35.90;95.50
52107;DHT22;38105;52.968;5.974;2023-08-20T09:03:51;35.30;96.10
52107;DHT22;38105;52.968;5.974;2023-08-20T09:06:16;34.50;96.60
52107;DHT22;38105;52.968;5.974;2023-08-20T09:08:42;34.70;97.10
52107;DHT22;38105;52.968;5.974;2023-08-20T09:11:07;35.10;97.60
52107;DHT22;38105;52.968;5.974;2023-08-20T09:13:37;35.60;96.60
52107;DHT22;38105;52.968;5.974;2023-08-20T09:16:03;36.30;96.00
52107;DHT22;38105;52.968;5.974;2023-08-20T09:18:29;37.00;95.60
52107;DHT22;38105;52.968;5.974;2023-08-20T09:20:56;36.70;95.40
52107;DHT22;38105;52.968;5.974;2023-08-20T09:23:22;36.80;96.30
52107;DHT22;38105;52.968;5.974;2023-08-20T09:25:47;36.40;95.30
52107;DHT22;38105;52.968;5.974;2023-08-20T09:28:13;36.70;95.20
52107;DHT22;38105;52.968;5.974;2023-08-20T09:30:39;37.30;94.90
52107;DHT22;38105;52.968;5.974;2023-08-20T09:33:07;37.30;95.20
52107;DHT22;38105;52.968;5.974;2023-08-20T09:35:33;37.80;95.60
52107;DHT22;38105;52.968;5.974;2023-08-20T09:38:05;37.70;94.60
52107;DHT22;38105;52.968;5.974;2023-08-20T09:40:30;37.70;94.90
52107;DHT22;38105;52.968;5.974;2023-08-20T09:42:56;37.30;93.80
52107;DHT22;38105;52.968;5.974;2023-08-20T09:45:25;37.30;94.30
52107;DHT22;38105;52.968;5.974;2023-08-20T09:47:55;37.40;94.40
52107;DHT22;38105;52.968;5.974;2023-08-20T09:50:21;36.80;93.90
52107;DHT22;38105;52.968;5.974;2023-08-20T09:52:48;36.80;94.10
52107;DHT22;38105;52.968;5.974;2023-08-20T09:55:19;35.90;94.30
52107;DHT22;38105;52.968;5.974;2023-08-20T09:57:46;35.20;95.20
52107;DHT22;38105;52.968;5.974;2023-08-20T10:00:12;35.20;94.80
52107;DHT22;38105;52.968;5.974;2023-08-20T10:02:39;35.30;95.40
52107;DHT22;38105;52.968;5.974;2023-08-20T10:05:05;35.60;95.70
52107;DHT22;38105;52.968;5.974;2023-08-20T10:07:31;35.10;95.20
52107;DHT22;38105;52.968;5.974;2023-08-20T10:09:57;35.40;95.50
52107;DHT22;38105;52.968;5.974;2023-08-20T10:12:26;35.10;95.90
52107;DHT22;38105;52.968;5.974;2023-08-20T10:14:51;34.90;95.80
52107;DHT22;38105;52.968;5.974;2023-08-20T10:17:17;34.70;95.00
52107;DHT22;38105;52.968;5.974;2023-08-20T10:19:43;33.90;96.30
52107;DHT22;38105;52.968;5.974;2023-08-20T10:22:09;34.20;96.50
52107;DHT22;38105;52.968;5.974;2023-08-20T10:24:51;33.60;96.90
52107;DHT22;38105;52.968;5.974;2023-08-20T10:27:26;33.50;97.30
52107;DHT22;38105;52.968;5.974;2023-08-20T10:29:55;33.00;97.40
52107;DHT22;38105;52.968;5.974;2023-08-20T10:32:43;33.00;98.40
52107;DHT22;38105;52.968;5.974;2023-08-20T10:35:06;32.60;98.60
52107;DHT22;38105;52.968;5.974;2023-08-20T10:37:33;32.20;98.40
52107;DHT22;38105;52.968;5.974;2023-08-20T10:39:59;32.10;98.90
52107;DHT22;38105;52.968;5.974;2023-08-20T10:42:25;31.60;98.10
52107;DHT22;38105;52.968;5.974;2023-08-20T10:47:24;30.20;99.80
52107;DHT22;38105;52.968;5.974;2023-08-20T10:49:53;30.10;99.90
52107;DHT22;38105;52.968;5.974;2023-08-20T10:52:19;30.00;99.90
52107;DHT22;38105;52.968;5.974;2023-08-20T10:54:45;29.70;99.90
52107;DHT22;38105;52.968;5.974;2023-08-20T10:57:10;29.70;99.90
52107;DHT22;38105;52.968;5.974;2023-08-20T10:59:38;29.20;99.90
52107;DHT22;38105;52.968;5.974;2023-08-20T11:02:04;28.80;99.90
52107;DHT22;38105;52.968;5.974;2023-08-20T11:04:31;28.70;99.90
52107;DHT22;38105;52.968;5.974;2023-08-20T11:07:00;28.70;99.90
52107;DHT22;38105;52.968;5.974;2023-08-20T11:09:27;29.00;99.90
52107;DHT22;38105;52.968;5.974;2023-08-20T11:11:53;29.30;99.90
52107;DHT22;38105;52.968;5.974;2023-08-20T11:14:19;29.40;99.90
52107;DHT22;38105;52.968;5.974;2023-08-20T11:16:45;29.50;99.90
52107;DHT22;38105;52.968;5.974;2023-08-20T11:19:12;29.30;99.90
52107;DHT22;38105;52.968;5.974;2023-08-20T11:21:38;29.00;99.90
52107;DHT22;38105;52.968;5.974;2023-08-20T11:24:04;29.00;99.90
52107;DHT22;38105;52.968;5.974;2023-08-20T11:26:29;29.50;99.90
52107;DHT22;38105;52.968;5.974;2023-08-20T11:28:55;29.70;99.90
52107;DHT22;38105;52.968;5.974;2023-08-20T11:31:21;30.20;99.90
52107;DHT22;38105;52.968;5.974;2023-08-20T11:33:47;29.90;99.90
52107;DHT22;38105;52.968;5.974;2023-08-20T11:36:16;29.20;99.90
52107;DHT22;38105;52.968;5.974;2023-08-20T11:38:42;29.10;99.90
52107;DHT22;38105;52.968;5.974;2023-08-20T11:41:08;29.00;99.90
52107;DHT22;38105;52.968;5.974;2023-08-20T11:43:33;28.70;99.90
52107;DHT22;38105;52.968;5.974;2023-08-20T11:45:59;28.90;99.90
52107;DHT22;38105;52.968;5.974;2023-08-20T11:48:25;29.20;99.90
52107;DHT22;38105;52.968;5.974;2023-08-20T11:50:50;28.60;99.90
52107;DHT22;38105;52.968;5.974;2023-08-20T11:53:20;28.60;99.90
52107;DHT22;38105;52.968;5.974;2023-08-20T11:55:46;28.40;99.90
52107;DHT22;38105;52.968;5.974;2023-08-20T11:58:12;28.40;99.90
52107;DHT22;38105;52.968;5.974;2023-08-20T12:00:37;28.30;99.90
52107;DHT22;38105;52.968;5.974;2023-08-20T12:03:03;28.60;99.90
52107;DHT22;38105;52.968;5.974;2023-08-20T12:05:30;28.70;99.90
52107;DHT22;38105;52.968;5.974;2023-08-20T12:07:57;28.80;99.90
52107;DHT22;38105;52.968;5.974;2023-08-20T12:10:26;29.10;99.90
52107;DHT22;38105;52.968;5.974;2023-08-20T12:12:51;29.50;99.90
52107;DHT22;38105;52.968;5.974;2023-08-20T12:15:18;29.30;99.90
52107;DHT22;38105;52.968;5.974;2023-08-20T12:17:56;29.10;99.90
52107;DHT22;38105;52.968;5.974;2023-08-20T12:20:22;29.00;99.90
52107;DHT22;38105;52.968;5.974;2023-08-20T12:22:47;29.20;99.90
52107;DHT22;38105;52.968;5.974;2023-08-20T12:25:13;29.20;99.90
52107;DHT22;38105;52.968;5.974;2023-08-20T12:27:38;29.20;99.90
52107;DHT22;38105;52.968;5.974;2023-08-20T12:30:04;29.50;99.90
52107;DHT22;38105;52.968;5.974;2023-08-20T12:32:30;29.30;99.90
52107;DHT22;38105;52.968;5.974;2023-08-20T12:34:55;29.20;99.90
52107;DHT22;38105;52.968;5.974;2023-08-20T12:37:21;29.10;99.90
52107;DHT22;38105;52.968;5.974;2023-08-20T12:39:47;29.10;99.90
52107;DHT22;38105;52.968;5.974;2023-08-20T12:42:12;28.70;99.90
52107;DHT22;38105;52.968;5.974;2023-08-20T12:44:38;28.60;99.90
52107;DHT22;38105;52.968;5.974;2023-08-20T12:47:03;28.70;99.90
52107;DHT22;38105;52.968;5.974;2023-08-20T12:49:29;28.60;99.90
52107;DHT22;38105;52.968;5.974;2023-08-20T12:51:54;28.50;99.90
52107;DHT22;38105;52.968;5.974;2023-08-20T12:54:20;28.30;99.90
52107;DHT22;38105;52.968;5.974;2023-08-20T12:56:46;28.20;99.90
52107;DHT22;38105;52.968;5.974;2023-08-20T12:59:11;28.30;99.90
52107;DHT22;38105;52.968;5.974;2023-08-20T13:01:37;28.40;99.90
52107;DHT22;38105;52.968;5.974;2023-08-20T13:04:02;28.40;99.90
52107;DHT22;38105;52.968;5.974;2023-08-20T13:06:29;28.40;99.90
52107;DHT22;38105;52.968;5.974;2023-08-20T13:08:54;28.10;99.90
52107;DHT22;38105;52.968;5.974;2023-08-20T13:11:20;28.20;99.90
52107;DHT22;38105;52.968;5.974;2023-08-20T13:13:47;28.10;99.90
52107;DHT22;38105;52.968;5.974;2023-08-20T13:16:12;27.90;99.90
52107;DHT22;38105;52.968;5.974;2023-08-20T13:18:38;27.80;99.90
52107;DHT22;38105;52.968;5.974;2023-08-20T13:21:04;27.80;99.90
52107;DHT22;38105;52.968;5.974;2023-08-20T13:23:30;27.50;99.90
52107;DHT22;38105;52.968;5.974;2023-08-20T13:25:55;27.20;99.90
52107;DHT22;38105;52.968;5.974;2023-08-20T13:28:21;27.10;99.90
52107;DHT22;38105;52.968;5.974;2023-08-20T13:30:46;27.20;99.90
52107;DHT22;38105;52.968;5.974;2023-08-20T13:33:15;27.30;99.90
52107;DHT22;38105;52.968;5.974;2023-08-20T13:35:40;27.40;99.90
52107;DHT22;38105;52.968;5.974;2023-08-20T13:38:06;27.50;99.90
52107;DHT22;38105;52.968;5.974;2023-08-20T13:40:32;27.50;99.90
52107;DHT22;38105;52.968;5.974;2023-08-20T13:42:57;27.50;99.90
52107;DHT22;38105;52.968;5.974;2023-08-20T13:45:23;27.40;99.90
52107;DHT22;38105;52.968;5.974;2023-08-20T13:47:49;27.20;99.90
52107;DHT22;38105;52.968;5.974;2023-08-20T13:50:14;27.00;99.90
52107;DHT22;38105;52.968;5.974;2023-08-20T13:52:40;27.00;99.90
52107;DHT22;38105;52.968;5.974;2023-08-20T13:55:06;27.10;99.90
52107;DHT22;38105;52.968;5.974;2023-08-20T13:57:31;27.30;99.90
52107;DHT22;38105;52.968;5.974;2023-08-20T13:59:57;27.50;99.90
52107;DHT22;38105;52.968;5.974;2023-08-20T14:02:23;27.40;99.90
52107;DHT22;38105;52.968;5.974;2023-08-20T14:04:48;27.50;99.90
52107;DHT22;38105;52.968;5.974;2023-08-20T14:07:14;27.60;99.90
52107;DHT22;38105;52.968;5.974;2023-08-20T14:09:39;27.50;99.90
52107;DHT22;38105;52.968;5.974;2023-08-20T14:12:06;27.60;99.90
52107;DHT22;38105;52.968;5.974;2023-08-20T14:14:31;27.50;99.90
52107;DHT22;38105;52.968;5.974;2023-08-20T14:16:57;27.10;99.90
52107;DHT22;38105;52.968;5.974;2023-08-20T14:19:22;27.00;99.90
52107;DHT22;38105;52.968;5.974;2023-08-20T14:21:48;27.00;99.90
52107;DHT22;38105;52.968;5.974;2023-08-20T14:24:13;26.90;99.90
52107;DHT22;38105;52.968;5.974;2023-08-20T14:26:39;26.90;99.90
52107;DHT22;38105;52.968;5.974;2023-08-20T14:29:05;26.60;99.90
52107;DHT22;38105;52.968;5.974;2023-08-20T14:31:30;26.60;99.90
52107;DHT22;38105;52.968;5.974;2023-08-20T14:33:56;26.60;99.90
52107;DHT22;38105;52.968;5.974;2023-08-20T14:36:22;26.60;99.90
52107;DHT22;38105;52.968;5.974;2023-08-20T14:38:47;26.60;99.90
52107;DHT22;38105;52.968;5.974;2023-08-20T14:41:13;26.70;99.90
52107;DHT22;38105;52.968;5.974;2023-08-20T14:43:38;26.70;99.90
52107;DHT22;38105;52.968;5.974;2023-08-20T14:46:04;26.80;99.90
52107;DHT22;38105;52.968;5.974;2023-08-20T14:48:29;26.90;99.90
52107;DHT22;38105;52.968;5.974;2023-08-20T14:50:55;26.70;99.90
52107;DHT22;38105;52.968;5.974;2023-08-20T14:53:21;26.70;99.90
52107;DHT22;38105;52.968;5.974;2023-08-20T14:55:46;26.60;99.90
52107;DHT22;38105;52.968;5.974;2023-08-20T14:58:12;26.60;99.90
52107;DHT22;38105;52.968;5.974;2023-08-20T15:00:38;26.50;99.90
52107;DHT22;38105;52.968;5.974;2023-08-20T15:03:03;26.50;99.90
52107;DHT22;38105;52.968;5.974;2023-08-20T15:05:30;26.60;99.90
52107;DHT22;38105;52.968;5.974;2023-08-20T15:07:58;26.60;99.90
52107;DHT22;38105;52.968;5.974;2023-08-20T15:10:23;26.60;99.90
52107;DHT22;38105;52.968;5.974;2023-08-20T15:12:49;26.40;99.90
52107;DHT22;38105;52.968;5.974;2023-08-20T15:15:14;26.30;99.90
52107;DHT22;38105;52.968;5.974;2023-08-20T15:17:40;26.30;99.90
52107;DHT22;38105;52.968;5.974;2023-08-20T15:20:06;26.40;99.90
52107;DHT22;38105;52.968;5.974;2023-08-20T15:22:39;26.40;99.90
52107;DHT22;38105;52.968;5.974;2023-08-20T15:25:05;26.20;99.90
52107;DHT22;38105;52.968;5.974;2023-08-20T15:27:33;26.20;99.90
52107;DHT22;38105;52.968;5.974;2023-08-20T15:30:00;26.30;99.90
52107;DHT22;38105;52.968;5.974;2023-08-20T15:32:25;26.40;99.90
52107;DHT22;38105;52.968;5.974;2023-08-20T15:34:52;26.30;99.90
52107;DHT22;38105;52.968;5.974;2023-08-20T15:37:18;26.20;99.90